TimeHST,TemperatureF,Dew PointF,Humidity,Sea Level PressureIn,VisibilityMPH,Wind Direction,Wind SpeedMPH,Gust SpeedMPH,PrecipitationIn,Events,Conditions,WindDirDegrees,DateUTC
12:54 AM,72.0,66.0,81,30.00,10.0,West,6.9,-,N/A,,Clear,280,2012-12-06 10:54:00
1:54 AM,70.0,63.0,78,30.01,10.0,NE,4.6,-,N/A,,Clear,50,2012-12-06 11:54:00
2:54 AM,70.0,64.0,81,30.00,10.0,Calm,Calm,-,N/A,,Clear,0,2012-12-06 12:54:00
3:54 AM,70.0,64.9,84,29.99,10.0,NW,8.1,-,N/A,,Clear,310,2012-12-06 13:54:00
4:54 AM,69.1,64.0,84,29.99,10.0,NW,6.9,-,N/A,,Clear,320,2012-12-06 14:54:00
5:54 AM,70.0,63.0,78,29.99,10.0,North,4.6,-,N/A,,Clear,350,2012-12-06 15:54:00
6:54 AM,69.1,61.0,75,30.01,10.0,ENE,5.8,-,N/A,,Scattered Clouds,70,2012-12-06 16:54:00
7:54 AM,73.0,64.9,76,30.03,10.0,SSE,3.5,-,N/A,,Clear,150,2012-12-06 17:54:00
8:54 AM,78.1,63.0,60,30.04,10.0,Calm,Calm,-,N/A,,Scattered Clouds,0,2012-12-06 18:54:00
9:46 AM,78.8,62.6,57,30.04,10.0,Calm,Calm,-,N/A,,Overcast,0,2012-12-06 19:46:00
9:54 AM,79.0,63.0,58,30.04,10.0,Calm,Calm,-,N/A,,Overcast,0,2012-12-06 19:54:00
10:12 AM,78.8,64.4,61,30.03,10.0,North,10.4,-,N/A,,Overcast,360,2012-12-06 20:12:00
10:54 AM,79.0,64.9,62,30.02,10.0,NE,10.4,18.4,N/A,,Mostly Cloudy,40,2012-12-06 20:54:00
11:54 AM,82.0,64.0,54,29.99,10.0,NNW,5.8,-,N/A,,Mostly Cloudy,340,2012-12-06 21:54:00
12:54 PM,82.0,63.0,52,29.95,10.0,West,4.6,-,N/A,,Scattered Clouds,270,2012-12-06 22:54:00
1:54 PM,82.9,62.1,49,29.93,10.0,ESE,11.5,-,N/A,,Partly Cloudy,120,2012-12-06 23:54:00
2:54 PM,82.9,63.0,51,29.92,10.0,South,13.8,-,N/A,,Scattered Clouds,180,2012-12-07 00:54:00
3:54 PM,81.0,62.1,52,29.92,10.0,South,9.2,-,N/A,,Clear,190,2012-12-07 01:54:00
4:54 PM,80.1,61.0,52,29.93,10.0,South,8.1,-,N/A,,Scattered Clouds,190,2012-12-07 02:54:00
5:54 PM,77.0,63.0,62,29.95,10.0,South,5.8,-,N/A,,Overcast,180,2012-12-07 03:54:00
6:54 PM,73.9,63.0,68,29.96,10.0,Calm,Calm,-,N/A,,Partly Cloudy,0,2012-12-07 04:54:00
7:54 PM,70.0,61.0,73,29.97,10.0,NNW,3.5,-,N/A,,Clear,330,2012-12-07 05:54:00
8:54 PM,69.1,61.0,75,29.97,10.0,Calm,Calm,-,N/A,,Clear,0,2012-12-07 06:54:00
9:54 PM,66.9,61.0,81,29.98,10.0,Calm,Calm,-,N/A,,Clear,0,2012-12-07 07:54:00
10:54 PM,68.0,62.1,81,29.98,10.0,North,4.6,-,N/A,,Clear,360,2012-12-07 08:54:00
11:54 PM,70.0,64.0,81,29.97,10.0,Calm,Calm,-,N/A,,Clear,0,2012-12-07 09:54:00